sensor_id;sensor_type;location;lat;lon;timestamp;P1;durP1;ratioP1;P2;durP2;ratioP2
6207;SDS011;3137;51.550;7.060;2022-08-07T00:00:23;4.07;;;4.07;;
6207;SDS011;3137;51.550;7.060;2022-08-07T00:02:50;3.90;;;3.80;;
6207;SDS011;3137;51.550;7.060;2022-08-07T00:05:19;3.73;;;3.73;;
6207;SDS011;3137;51.550;7.060;2022-08-07T00:07:45;3.70;;;3.60;;
6207;SDS011;3137;51.550;7.060;2022-08-07T00:10:15;4.30;;;4.10;;
6207;SDS011;3137;51.550;7.060;2022-08-07T00:12:54;4.70;;;4.50;;
6207;SDS011;3137;51.550;7.060;2022-08-07T00:15:26;4.17;;;4.17;;
6207;SDS011;3137;51.550;7.060;2022-08-07T00:18:11;4.77;;;4.43;;
6207;SDS011;3137;51.550;7.060;2022-08-07T00:20:49;4.00;;;3.97;;
6207;SDS011;3137;51.550;7.060;2022-08-07T00:23:16;4.10;;;4.00;;
6207;SDS011;3137;51.550;7.060;2022-08-07T00:25:46;4.47;;;4.47;;
6207;SDS011;3137;51.550;7.060;2022-08-07T00:28:25;4.17;;;3.97;;
6207;SDS011;3137;51.550;7.060;2022-08-07T00:31:04;4.00;;;4.00;;
6207;SDS011;3137;51.550;7.060;2022-08-07T00:33:38;4.33;;;4.33;;
6207;SDS011;3137;51.550;7.060;2022-08-07T00:36:06;5.23;;;4.77;;
6207;SDS011;3137;51.550;7.060;2022-08-07T00:38:33;3.93;;;3.93;;
6207;SDS011;3137;51.550;7.060;2022-08-07T00:41:02;4.40;;;4.30;;
6207;SDS011;3137;51.550;7.060;2022-08-07T00:43:35;4.43;;;4.33;;
6207;SDS011;3137;51.550;7.060;2022-08-07T00:46:21;3.73;;;3.73;;
6207;SDS011;3137;51.550;7.060;2022-08-07T00:48:49;3.97;;;3.97;;
6207;SDS011;3137;51.550;7.060;2022-08-07T00:51:17;4.37;;;4.23;;
6207;SDS011;3137;51.550;7.060;2022-08-07T00:53:43;4.63;;;4.53;;
6207;SDS011;3137;51.550;7.060;2022-08-07T00:56:21;10.03;;;4.33;;
6207;SDS011;3137;51.550;7.060;2022-08-07T00:58:55;4.27;;;4.17;;
6207;SDS011;3137;51.550;7.060;2022-08-07T01:01:22;4.70;;;4.50;;
6207;SDS011;3137;51.550;7.060;2022-08-07T01:03:48;3.67;;;3.67;;
6207;SDS011;3137;51.550;7.060;2022-08-07T01:06:25;4.00;;;4.00;;
6207;SDS011;3137;51.550;7.060;2022-08-07T01:08:53;3.77;;;3.77;;
6207;SDS011;3137;51.550;7.060;2022-08-07T01:11:23;3.90;;;3.90;;
6207;SDS011;3137;51.550;7.060;2022-08-07T01:14:10;4.33;;;4.20;;
6207;SDS011;3137;51.550;7.060;2022-08-07T01:16:36;4.73;;;4.73;;
6207;SDS011;3137;51.550;7.060;2022-08-07T01:19:06;3.57;;;3.57;;
6207;SDS011;3137;51.550;7.060;2022-08-07T01:21:46;4.13;;;3.93;;
6207;SDS011;3137;51.550;7.060;2022-08-07T01:24:19;3.93;;;3.87;;
6207;SDS011;3137;51.550;7.060;2022-08-07T01:26:48;5.30;;;4.10;;
6207;SDS011;3137;51.550;7.060;2022-08-07T01:29:19;4.57;;;4.47;;
6207;SDS011;3137;51.550;7.060;2022-08-07T01:31:49;4.30;;;4.20;;
6207;SDS011;3137;51.550;7.060;2022-08-07T01:34:17;5.47;;;5.27;;
6207;SDS011;3137;51.550;7.060;2022-08-07T01:36:48;6.93;;;4.50;;
6207;SDS011;3137;51.550;7.060;2022-08-07T01:39:27;4.40;;;4.30;;
6207;SDS011;3137;51.550;7.060;2022-08-07T01:42:19;4.30;;;4.20;;
6207;SDS011;3137;51.550;7.060;2022-08-07T01:45:08;4.20;;;3.87;;
6207;SDS011;3137;51.550;7.060;2022-08-07T01:47:45;4.70;;;4.67;;
6207;SDS011;3137;51.550;7.060;2022-08-07T01:50:33;4.57;;;4.47;;
6207;SDS011;3137;51.550;7.060;2022-08-07T01:53:05;4.27;;;4.27;;
6207;SDS011;3137;51.550;7.060;2022-08-07T01:55:38;4.23;;;4.23;;
6207;SDS011;3137;51.550;7.060;2022-08-07T01:58:12;3.93;;;3.93;;
6207;SDS011;3137;51.550;7.060;2022-08-07T02:00:57;5.03;;;4.93;;
6207;SDS011;3137;51.550;7.060;2022-08-07T02:03:37;4.97;;;4.70;;
6207;SDS011;3137;51.550;7.060;2022-08-07T02:06:17;3.80;;;3.80;;
6207;SDS011;3137;51.550;7.060;2022-08-07T02:09:01;4.87;;;4.57;;
6207;SDS011;3137;51.550;7.060;2022-08-07T02:11:34;4.50;;;4.40;;
6207;SDS011;3137;51.550;7.060;2022-08-07T02:14:25;4.27;;;4.27;;
6207;SDS011;3137;51.550;7.060;2022-08-07T02:17:07;4.77;;;4.70;;
6207;SDS011;3137;51.550;7.060;2022-08-07T02:19:36;4.67;;;4.57;;
6207;SDS011;3137;51.550;7.060;2022-08-07T02:22:26;4.97;;;4.67;;
6207;SDS011;3137;51.550;7.060;2022-08-07T02:24:55;4.37;;;4.27;;
6207;SDS011;3137;51.550;7.060;2022-08-07T02:27:25;5.00;;;4.90;;
6207;SDS011;3137;51.550;7.060;2022-08-07T02:30:00;4.20;;;4.10;;
6207;SDS011;3137;51.550;7.060;2022-08-07T02:32:33;4.33;;;4.33;;
6207;SDS011;3137;51.550;7.060;2022-08-07T02:35:24;4.90;;;4.80;;
6207;SDS011;3137;51.550;7.060;2022-08-07T02:38:12;4.67;;;4.47;;
6207;SDS011;3137;51.550;7.060;2022-08-07T02:40:41;5.60;;;4.20;;
6207;SDS011;3137;51.550;7.060;2022-08-07T02:43:12;4.37;;;4.30;;
6207;SDS011;3137;51.550;7.060;2022-08-07T02:45:40;4.60;;;4.60;;
6207;SDS011;3137;51.550;7.060;2022-08-07T02:48:28;4.43;;;4.33;;
6207;SDS011;3137;51.550;7.060;2022-08-07T02:50:57;5.33;;;4.47;;
6207;SDS011;3137;51.550;7.060;2022-08-07T02:53:27;4.80;;;4.60;;
6207;SDS011;3137;51.550;7.060;2022-08-07T02:56:05;4.37;;;4.27;;
6207;SDS011;3137;51.550;7.060;2022-08-07T02:58:48;4.83;;;4.73;;
6207;SDS011;3137;51.550;7.060;2022-08-07T03:01:19;4.50;;;4.50;;
6207;SDS011;3137;51.550;7.060;2022-08-07T03:04:03;4.90;;;4.80;;
6207;SDS011;3137;51.550;7.060;2022-08-07T03:06:37;4.73;;;4.60;;
6207;SDS011;3137;51.550;7.060;2022-08-07T03:09:05;5.13;;;4.80;;
6207;SDS011;3137;51.550;7.060;2022-08-07T03:11:37;4.67;;;4.57;;
6207;SDS011;3137;51.550;7.060;2022-08-07T03:14:18;4.67;;;4.57;;
6207;SDS011;3137;51.550;7.060;2022-08-07T03:16:48;4.47;;;4.17;;
6207;SDS011;3137;51.550;7.060;2022-08-07T03:19:17;4.87;;;4.77;;
6207;SDS011;3137;51.550;7.060;2022-08-07T03:21:45;4.90;;;4.80;;
6207;SDS011;3137;51.550;7.060;2022-08-07T03:24:16;4.43;;;4.43;;
6207;SDS011;3137;51.550;7.060;2022-08-07T03:26:54;5.27;;;5.13;;
6207;SDS011;3137;51.550;7.060;2022-08-07T03:29:37;5.43;;;4.87;;
6207;SDS011;3137;51.550;7.060;2022-08-07T03:32:17;5.07;;;4.97;;
6207;SDS011;3137;51.550;7.060;2022-08-07T03:34:49;5.30;;;5.20;;
6207;SDS011;3137;51.550;7.060;2022-08-07T03:37:38;5.03;;;4.93;;
6207;SDS011;3137;51.550;7.060;2022-08-07T03:40:21;5.60;;;5.50;;
6207;SDS011;3137;51.550;7.060;2022-08-07T03:43:02;4.43;;;4.43;;
6207;SDS011;3137;51.550;7.060;2022-08-07T03:45:35;5.13;;;5.03;;
6207;SDS011;3137;51.550;7.060;2022-08-07T03:48:11;5.33;;;5.23;;
6207;SDS011;3137;51.550;7.060;2022-08-07T03:50:38;4.93;;;4.87;;
6207;SDS011;3137;51.550;7.060;2022-08-07T03:53:17;4.77;;;4.60;;
6207;SDS011;3137;51.550;7.060;2022-08-07T03:55:56;5.10;;;4.80;;
6207;SDS011;3137;51.550;7.060;2022-08-07T03:58:31;4.93;;;4.63;;
6207;SDS011;3137;51.550;7.060;2022-08-07T04:01:18;4.47;;;4.47;;
6207;SDS011;3137;51.550;7.060;2022-08-07T04:03:48;5.30;;;5.30;;
6207;SDS011;3137;51.550;7.060;2022-08-07T04:06:22;5.20;;;5.10;;
6207;SDS011;3137;51.550;7.060;2022-08-07T04:09:03;4.63;;;4.53;;
6207;SDS011;3137;51.550;7.060;2022-08-07T04:11:30;4.23;;;4.23;;
6207;SDS011;3137;51.550;7.060;2022-08-07T04:14:18;5.37;;;5.27;;
6207;SDS011;3137;51.550;7.060;2022-08-07T04:17:05;5.57;;;5.20;;
6207;SDS011;3137;51.550;7.060;2022-08-07T04:19:48;5.37;;;5.07;;
6207;SDS011;3137;51.550;7.060;2022-08-07T04:22:18;5.33;;;5.07;;
6207;SDS011;3137;51.550;7.060;2022-08-07T04:24:48;4.77;;;4.63;;
6207;SDS011;3137;51.550;7.060;2022-08-07T04:27:16;4.33;;;4.23;;
6207;SDS011;3137;51.550;7.060;2022-08-07T04:29:54;4.67;;;4.57;;
6207;SDS011;3137;51.550;7.060;2022-08-07T04:32:42;4.70;;;4.60;;
6207;SDS011;3137;51.550;7.060;2022-08-07T04:35:13;5.60;;;5.33;;
6207;SDS011;3137;51.550;7.060;2022-08-07T04:37:41;5.67;;;5.37;;
6207;SDS011;3137;51.550;7.060;2022-08-07T04:40:27;5.60;;;5.50;;
6207;SDS011;3137;51.550;7.060;2022-08-07T04:42:57;4.87;;;4.60;;
6207;SDS011;3137;51.550;7.060;2022-08-07T04:56:43;5.87;;;5.70;;
6207;SDS011;3137;51.550;7.060;2022-08-07T04:59:39;5.10;;;5.00;;
6207;SDS011;3137;51.550;7.060;2022-08-07T05:02:34;5.70;;;5.60;;
6207;SDS011;3137;51.550;7.060;2022-08-07T05:05:29;5.47;;;5.37;;
6207;SDS011;3137;51.550;7.060;2022-08-07T05:08:30;6.23;;;5.73;;
6207;SDS011;3137;51.550;7.060;2022-08-07T05:11:23;6.63;;;6.37;;
6207;SDS011;3137;51.550;7.060;2022-08-07T05:14:17;5.60;;;5.60;;
6207;SDS011;3137;51.550;7.060;2022-08-07T05:17:08;5.70;;;5.50;;
6207;SDS011;3137;51.550;7.060;2022-08-07T05:19:44;6.33;;;6.10;;
6207;SDS011;3137;51.550;7.060;2022-08-07T05:22:17;5.87;;;5.87;;
6207;SDS011;3137;51.550;7.060;2022-08-07T05:24:55;6.10;;;6.00;;
6207;SDS011;3137;51.550;7.060;2022-08-07T05:27:25;6.93;;;6.63;;
6207;SDS011;3137;51.550;7.060;2022-08-07T05:30:14;7.60;;;7.40;;
6207;SDS011;3137;51.550;7.060;2022-08-07T05:32:57;18.97;;;7.23;;
6207;SDS011;3137;51.550;7.060;2022-08-07T05:35:29;8.13;;;7.67;;
6207;SDS011;3137;51.550;7.060;2022-08-07T05:37:59;7.07;;;6.73;;
6207;SDS011;3137;51.550;7.060;2022-08-07T05:40:36;7.53;;;7.23;;
6207;SDS011;3137;51.550;7.060;2022-08-07T05:43:17;7.43;;;7.10;;
6207;SDS011;3137;51.550;7.060;2022-08-07T05:46:04;7.97;;;7.40;;
6207;SDS011;3137;51.550;7.060;2022-08-07T05:48:31;7.70;;;7.23;;
6207;SDS011;3137;51.550;7.060;2022-08-07T05:51:00;6.80;;;6.43;;
6207;SDS011;3137;51.550;7.060;2022-08-07T05:53:30;7.43;;;7.00;;
6207;SDS011;3137;51.550;7.060;2022-08-07T05:56:18;6.70;;;6.60;;
6207;SDS011;3137;51.550;7.060;2022-08-07T05:58:57;6.43;;;6.17;;
6207;SDS011;3137;51.550;7.060;2022-08-07T06:01:26;6.87;;;6.60;;
6207;SDS011;3137;51.550;7.060;2022-08-07T06:04:03;6.30;;;6.10;;
6207;SDS011;3137;51.550;7.060;2022-08-07T06:06:35;5.23;;;5.03;;
6207;SDS011;3137;51.550;7.060;2022-08-07T06:09:04;6.73;;;6.20;;
6207;SDS011;3137;51.550;7.060;2022-08-07T06:11:35;5.90;;;5.80;;
6207;SDS011;3137;51.550;7.060;2022-08-07T06:14:03;5.97;;;5.73;;
6207;SDS011;3137;51.550;7.060;2022-08-07T06:16:49;5.10;;;5.10;;
6207;SDS011;3137;51.550;7.060;2022-08-07T06:19:25;5.37;;;5.33;;
6207;SDS011;3137;51.550;7.060;2022-08-07T06:22:13;7.10;;;6.70;;
6207;SDS011;3137;51.550;7.060;2022-08-07T06:25:00;5.83;;;5.73;;
6207;SDS011;3137;51.550;7.060;2022-08-07T06:27:28;5.87;;;5.67;;
6207;SDS011;3137;51.550;7.060;2022-08-07T06:30:15;5.60;;;5.50;;
6207;SDS011;3137;51.550;7.060;2022-08-07T06:33:05;6.00;;;5.90;;
6207;SDS011;3137;51.550;7.060;2022-08-07T06:35:41;5.50;;;5.40;;
6207;SDS011;3137;51.550;7.060;2022-08-07T06:38:29;5.70;;;5.50;;
6207;SDS011;3137;51.550;7.060;2022-08-07T06:40:57;5.83;;;5.73;;
6207;SDS011;3137;51.550;7.060;2022-08-07T06:43:26;4.83;;;4.70;;
6207;SDS011;3137;51.550;7.060;2022-08-07T06:46:10;5.27;;;5.07;;
6207;SDS011;3137;51.550;7.060;2022-08-07T06:48:38;5.37;;;5.27;;
6207;SDS011;3137;51.550;7.060;2022-08-07T06:51:08;4.67;;;4.63;;
6207;SDS011;3137;51.550;7.060;2022-08-07T06:53:37;5.03;;;4.93;;
6207;SDS011;3137;51.550;7.060;2022-08-07T06:56:26;5.17;;;5.07;;
6207;SDS011;3137;51.550;7.060;2022-08-07T06:59:40;5.67;;;5.67;;
6207;SDS011;3137;51.550;7.060;2022-08-07T07:02:28;5.00;;;5.00;;
6207;SDS011;3137;51.550;7.060;2022-08-07T07:05:19;4.30;;;4.30;;
6207;SDS011;3137;51.550;7.060;2022-08-07T07:08:06;3.97;;;3.87;;
6207;SDS011;3137;51.550;7.060;2022-08-07T07:10:44;3.93;;;3.83;;
6207;SDS011;3137;51.550;7.060;2022-08-07T07:13:28;3.50;;;3.40;;
6207;SDS011;3137;51.550;7.060;2022-08-07T07:16:19;3.70;;;3.60;;
6207;SDS011;3137;51.550;7.060;2022-08-07T07:18:56;2.80;;;2.80;;
6207;SDS011;3137;51.550;7.060;2022-08-07T07:21:25;3.80;;;3.60;;
6207;SDS011;3137;51.550;7.060;2022-08-07T07:24:12;3.43;;;3.23;;
6207;SDS011;3137;51.550;7.060;2022-08-07T07:26:42;2.97;;;2.87;;
6207;SDS011;3137;51.550;7.060;2022-08-07T07:29:17;3.63;;;3.63;;
6207;SDS011;3137;51.550;7.060;2022-08-07T07:32:08;2.93;;;2.80;;
6207;SDS011;3137;51.550;7.060;2022-08-07T07:34:37;2.90;;;2.90;;
6207;SDS011;3137;51.550;7.060;2022-08-07T07:37:07;2.37;;;2.37;;
6207;SDS011;3137;51.550;7.060;2022-08-07T07:39:54;2.60;;;2.50;;
6207;SDS011;3137;51.550;7.060;2022-08-07T07:42:25;2.67;;;2.57;;
6207;SDS011;3137;51.550;7.060;2022-08-07T07:45:01;2.50;;;2.50;;
6207;SDS011;3137;51.550;7.060;2022-08-07T07:47:29;2.73;;;2.73;;
6207;SDS011;3137;51.550;7.060;2022-08-07T07:50:16;2.37;;;2.37;;
6207;SDS011;3137;51.550;7.060;2022-08-07T07:53:04;2.20;;;2.20;;
6207;SDS011;3137;51.550;7.060;2022-08-07T07:55:51;2.47;;;2.37;;
6207;SDS011;3137;51.550;7.060;2022-08-07T07:58:23;2.20;;;2.20;;
6207;SDS011;3137;51.550;7.060;2022-08-07T08:00:54;1.97;;;1.97;;
6207;SDS011;3137;51.550;7.060;2022-08-07T08:03:20;1.93;;;1.93;;
6207;SDS011;3137;51.550;7.060;2022-08-07T08:06:08;3.00;;;2.90;;
6207;SDS011;3137;51.550;7.060;2022-08-07T08:08:38;2.30;;;2.30;;
6207;SDS011;3137;51.550;7.060;2022-08-07T08:11:07;2.30;;;2.30;;
6207;SDS011;3137;51.550;7.060;2022-08-07T08:13:44;2.43;;;2.43;;
6207;SDS011;3137;51.550;7.060;2022-08-07T08:16:21;2.30;;;2.27;;
6207;SDS011;3137;51.550;7.060;2022-08-07T08:18:50;2.87;;;2.00;;
6207;SDS011;3137;51.550;7.060;2022-08-07T08:21:20;2.37;;;2.23;;
6207;SDS011;3137;51.550;7.060;2022-08-07T08:24:26;2.73;;;2.63;;
6207;SDS011;3137;51.550;7.060;2022-08-07T08:27:33;1.87;;;1.87;;
6207;SDS011;3137;51.550;7.060;2022-08-07T08:30:09;1.57;;;1.57;;
6207;SDS011;3137;51.550;7.060;2022-08-07T08:32:56;1.93;;;1.93;;
6207;SDS011;3137;51.550;7.060;2022-08-07T08:35:25;2.00;;;1.90;;
6207;SDS011;3137;51.550;7.060;2022-08-07T08:38:04;3.60;;;1.63;;
6207;SDS011;3137;51.550;7.060;2022-08-07T08:40:37;1.10;;;1.10;;
6207;SDS011;3137;51.550;7.060;2022-08-07T08:51:44;1.20;;;1.20;;
6207;SDS011;3137;51.550;7.060;2022-08-07T08:54:37;1.03;;;1.03;;
6207;SDS011;3137;51.550;7.060;2022-08-07T08:57:10;1.77;;;1.67;;
6207;SDS011;3137;51.550;7.060;2022-08-07T08:59:47;0.80;;;0.80;;
6207;SDS011;3137;51.550;7.060;2022-08-07T09:05:09;1.30;;;1.30;;
6207;SDS011;3137;51.550;7.060;2022-08-07T09:10:25;1.00;;;1.00;;
6207;SDS011;3137;51.550;7.060;2022-08-07T09:16:04;0.90;;;0.90;;
6207;SDS011;3137;51.550;7.060;2022-08-07T09:18:57;1.13;;;1.13;;
6207;SDS011;3137;51.550;7.060;2022-08-07T09:22:14;0.80;;;0.80;;
6207;SDS011;3137;51.550;7.060;2022-08-07T09:28:03;3.80;;;1.37;;
6207;SDS011;3137;51.550;7.060;2022-08-07T09:30:36;4.80;;;1.40;;
6207;SDS011;3137;51.550;7.060;2022-08-07T09:33:26;0.90;;;0.90;;
6207;SDS011;3137;51.550;7.060;2022-08-07T09:36:23;0.80;;;0.80;;
6207;SDS011;3137;51.550;7.060;2022-08-07T09:42:59;1.13;;;1.13;;
6207;SDS011;3137;51.550;7.060;2022-08-07T09:48:10;1.20;;;1.20;;
6207;SDS011;3137;51.550;7.060;2022-08-07T09:51:05;1.43;;;1.33;;
6207;SDS011;3137;51.550;7.060;2022-08-07T09:53:57;0.97;;;0.97;;
6207;SDS011;3137;51.550;7.060;2022-08-07T09:56:33;0.93;;;0.93;;
6207;SDS011;3137;51.550;7.060;2022-08-07T09:59:20;1.17;;;1.03;;
6207;SDS011;3137;51.550;7.060;2022-08-07T10:02:08;4.63;;;0.83;;
6207;SDS011;3137;51.550;7.060;2022-08-07T10:25:52;3.70;;;0.70;;
6207;SDS011;3137;51.550;7.060;2022-08-07T10:30:57;0.80;;;0.80;;
6207;SDS011;3137;51.550;7.060;2022-08-07T10:45:35;1.03;;;1.03;;
6207;SDS011;3137;51.550;7.060;2022-08-07T10:48:24;0.80;;;0.80;;
6207;SDS011;3137;51.550;7.060;2022-08-07T10:59:23;1.30;;;1.27;;
6207;SDS011;3137;51.550;7.060;2022-08-07T11:02:30;1.20;;;1.03;;
6207;SDS011;3137;51.550;7.060;2022-08-07T11:17:07;0.67;;;0.67;;
6207;SDS011;3137;51.550;7.060;2022-08-07T11:19:52;0.90;;;0.90;;
6207;SDS011;3137;51.550;7.060;2022-08-07T11:22:28;0.83;;;0.80;;
6207;SDS011;3137;51.550;7.060;2022-08-07T11:25:31;0.87;;;0.80;;
6207;SDS011;3137;51.550;7.060;2022-08-07T11:28:20;1.00;;;1.00;;
6207;SDS011;3137;51.550;7.060;2022-08-07T11:33:41;0.90;;;0.90;;
6207;SDS011;3137;51.550;7.060;2022-08-07T11:37:10;0.80;;;0.80;;
6207;SDS011;3137;51.550;7.060;2022-08-07T11:39:31;0.90;;;0.90;;
6207;SDS011;3137;51.550;7.060;2022-08-07T11:45:08;2.30;;;0.80;;
6207;SDS011;3137;51.550;7.060;2022-08-07T12:12:05;0.70;;;0.70;;
6207;SDS011;3137;51.550;7.060;2022-08-07T12:17:09;0.93;;;0.80;;
6207;SDS011;3137;51.550;7.060;2022-08-07T12:20:07;0.80;;;0.80;;
6207;SDS011;3137;51.550;7.060;2022-08-07T12:23:03;0.90;;;0.90;;
6207;SDS011;3137;51.550;7.060;2022-08-07T12:25:44;0.70;;;0.70;;
6207;SDS011;3137;51.550;7.060;2022-08-07T12:31:50;1.10;;;1.10;;
6207;SDS011;3137;51.550;7.060;2022-08-07T12:34:30;1.40;;;1.40;;
6207;SDS011;3137;51.550;7.060;2022-08-07T12:37:07;1.23;;;1.23;;
6207;SDS011;3137;51.550;7.060;2022-08-07T12:39:48;1.00;;;1.00;;
6207;SDS011;3137;51.550;7.060;2022-08-07T12:42:19;1.00;;;1.00;;
6207;SDS011;3137;51.550;7.060;2022-08-07T12:44:53;1.10;;;1.10;;
6207;SDS011;3137;51.550;7.060;2022-08-07T12:50:24;1.13;;;1.13;;
6207;SDS011;3137;51.550;7.060;2022-08-07T12:58:31;0.80;;;0.80;;
6207;SDS011;3137;51.550;7.060;2022-08-07T13:03:53;1.00;;;1.00;;
6207;SDS011;3137;51.550;7.060;2022-08-07T13:10:22;0.90;;;0.90;;
6207;SDS011;3137;51.550;7.060;2022-08-07T13:15:42;0.93;;;0.93;;
6207;SDS011;3137;51.550;7.060;2022-08-07T13:20:56;0.80;;;0.80;;
6207;SDS011;3137;51.550;7.060;2022-08-07T13:23:44;1.00;;;1.00;;
6207;SDS011;3137;51.550;7.060;2022-08-07T13:26:34;2.57;;;1.00;;
6207;SDS011;3137;51.550;7.060;2022-08-07T13:29:13;1.60;;;1.10;;
6207;SDS011;3137;51.550;7.060;2022-08-07T13:31:45;1.63;;;1.63;;
6207;SDS011;3137;51.550;7.060;2022-08-07T13:37:40;2.07;;;0.90;;
6207;SDS011;3137;51.550;7.060;2022-08-07T13:40:08;0.90;;;0.90;;
6207;SDS011;3137;51.550;7.060;2022-08-07T13:42:58;1.47;;;1.37;;
6207;SDS011;3137;51.550;7.060;2022-08-07T13:45:27;1.10;;;1.10;;
6207;SDS011;3137;51.550;7.060;2022-08-07T13:48:15;1.10;;;1.10;;
6207;SDS011;3137;51.550;7.060;2022-08-07T13:50:59;1.20;;;1.20;;
6207;SDS011;3137;51.550;7.060;2022-08-07T13:53:29;1.00;;;1.00;;
6207;SDS011;3137;51.550;7.060;2022-08-07T13:56:19;1.10;;;1.10;;
6207;SDS011;3137;51.550;7.060;2022-08-07T13:59:13;1.00;;;1.00;;
6207;SDS011;3137;51.550;7.060;2022-08-07T14:01:44;6.13;;;0.97;;
6207;SDS011;3137;51.550;7.060;2022-08-07T14:04:30;0.90;;;0.90;;
6207;SDS011;3137;51.550;7.060;2022-08-07T14:07:04;0.90;;;0.90;;
6207;SDS011;3137;51.550;7.060;2022-08-07T14:09:35;0.90;;;0.90;;
6207;SDS011;3137;51.550;7.060;2022-08-07T14:12:28;0.87;;;0.87;;
6207;SDS011;3137;51.550;7.060;2022-08-07T14:15:03;1.00;;;1.00;;
6207;SDS011;3137;51.550;7.060;2022-08-07T14:17:33;1.17;;;1.17;;
6207;SDS011;3137;51.550;7.060;2022-08-07T14:20:27;0.90;;;0.90;;
6207;SDS011;3137;51.550;7.060;2022-08-07T14:23:17;1.60;;;1.10;;
6207;SDS011;3137;51.550;7.060;2022-08-07T14:26:06;0.90;;;0.90;;
6207;SDS011;3137;51.550;7.060;2022-08-07T14:28:58;1.07;;;1.07;;
6207;SDS011;3137;51.550;7.060;2022-08-07T14:31:46;1.17;;;1.17;;
6207;SDS011;3137;51.550;7.060;2022-08-07T14:34:23;1.03;;;1.03;;
6207;SDS011;3137;51.550;7.060;2022-08-07T14:36:56;0.90;;;0.90;;
6207;SDS011;3137;51.550;7.060;2022-08-07T14:39:23;1.00;;;1.00;;
6207;SDS011;3137;51.550;7.060;2022-08-07T14:42:11;1.20;;;1.20;;
6207;SDS011;3137;51.550;7.060;2022-08-07T14:44:49;1.00;;;1.00;;
6207;SDS011;3137;51.550;7.060;2022-08-07T14:47:17;1.10;;;1.10;;
6207;SDS011;3137;51.550;7.060;2022-08-07T14:49:44;0.90;;;0.90;;
6207;SDS011;3137;51.550;7.060;2022-08-07T14:52:24;1.20;;;1.10;;
6207;SDS011;3137;51.550;7.060;2022-08-07T14:54:54;3.60;;;1.20;;
6207;SDS011;3137;51.550;7.060;2022-08-07T14:57:23;0.80;;;0.80;;
6207;SDS011;3137;51.550;7.060;2022-08-07T15:00:11;1.07;;;1.07;;
6207;SDS011;3137;51.550;7.060;2022-08-07T15:02:55;1.10;;;1.10;;
6207;SDS011;3137;51.550;7.060;2022-08-07T15:05:22;1.10;;;1.10;;
6207;SDS011;3137;51.550;7.060;2022-08-07T15:07:49;6.03;;;1.00;;
6207;SDS011;3137;51.550;7.060;2022-08-07T15:10:20;1.00;;;1.00;;
6207;SDS011;3137;51.550;7.060;2022-08-07T15:13:14;0.90;;;0.90;;
6207;SDS011;3137;51.550;7.060;2022-08-07T15:15:42;0.97;;;0.97;;
6207;SDS011;3137;51.550;7.060;2022-08-07T15:18:20;1.03;;;1.03;;
6207;SDS011;3137;51.550;7.060;2022-08-07T15:21:11;1.17;;;1.17;;
6207;SDS011;3137;51.550;7.060;2022-08-07T15:24:19;1.10;;;1.10;;
6207;SDS011;3137;51.550;7.060;2022-08-07T15:27:19;1.10;;;1.10;;
6207;SDS011;3137;51.550;7.060;2022-08-07T15:29:52;1.37;;;1.37;;
6207;SDS011;3137;51.550;7.060;2022-08-07T15:32:40;1.00;;;1.00;;
6207;SDS011;3137;51.550;7.060;2022-08-07T15:35:26;0.90;;;0.90;;
6207;SDS011;3137;51.550;7.060;2022-08-07T15:38:14;1.00;;;1.00;;
6207;SDS011;3137;51.550;7.060;2022-08-07T15:41:09;1.00;;;1.00;;
6207;SDS011;3137;51.550;7.060;2022-08-07T15:44:00;1.70;;;1.33;;
6207;SDS011;3137;51.550;7.060;2022-08-07T15:46:28;1.40;;;1.30;;
6207;SDS011;3137;51.550;7.060;2022-08-07T15:49:18;1.30;;;1.30;;
6207;SDS011;3137;51.550;7.060;2022-08-07T15:52:13;1.10;;;1.10;;
6207;SDS011;3137;51.550;7.060;2022-08-07T15:54:46;1.10;;;1.10;;
6207;SDS011;3137;51.550;7.060;2022-08-07T15:57:18;1.20;;;1.20;;
6207;SDS011;3137;51.550;7.060;2022-08-07T16:00:09;1.00;;;1.00;;
6207;SDS011;3137;51.550;7.060;2022-08-07T16:02:56;2.43;;;1.10;;
6207;SDS011;3137;51.550;7.060;2022-08-07T16:05:24;1.10;;;1.10;;
6207;SDS011;3137;51.550;7.060;2022-08-07T16:08:03;1.00;;;1.00;;
6207;SDS011;3137;51.550;7.060;2022-08-07T16:10:58;1.10;;;1.10;;
6207;SDS011;3137;51.550;7.060;2022-08-07T16:13:49;1.00;;;1.00;;
6207;SDS011;3137;51.550;7.060;2022-08-07T16:16:31;0.93;;;0.93;;
6207;SDS011;3137;51.550;7.060;2022-08-07T16:19:29;1.17;;;1.10;;
6207;SDS011;3137;51.550;7.060;2022-08-07T16:31:24;1.33;;;1.33;;
6207;SDS011;3137;51.550;7.060;2022-08-07T16:34:21;1.00;;;1.00;;
6207;SDS011;3137;51.550;7.060;2022-08-07T16:37:03;1.57;;;1.57;;
6207;SDS011;3137;51.550;7.060;2022-08-07T16:40:21;1.60;;;1.60;;
6207;SDS011;3137;51.550;7.060;2022-08-07T16:57:09;1.73;;;1.73;;
6207;SDS011;3137;51.550;7.060;2022-08-07T17:00:02;1.23;;;1.23;;
6207;SDS011;3137;51.550;7.060;2022-08-07T17:02:38;1.50;;;1.50;;
6207;SDS011;3137;51.550;7.060;2022-08-07T17:05:26;1.30;;;1.30;;
6207;SDS011;3137;51.550;7.060;2022-08-07T17:08:18;1.50;;;1.50;;
6207;SDS011;3137;51.550;7.060;2022-08-07T17:14:40;1.73;;;1.73;;
6207;SDS011;3137;51.550;7.060;2022-08-07T17:20:13;1.60;;;1.60;;
6207;SDS011;3137;51.550;7.060;2022-08-07T17:29:06;1.20;;;1.20;;
6207;SDS011;3137;51.550;7.060;2022-08-07T17:32:16;1.40;;;1.40;;
6207;SDS011;3137;51.550;7.060;2022-08-07T17:35:10;1.80;;;1.70;;
6207;SDS011;3137;51.550;7.060;2022-08-07T17:38:07;1.27;;;1.27;;
6207;SDS011;3137;51.550;7.060;2022-08-07T17:40:57;1.83;;;1.73;;
6207;SDS011;3137;51.550;7.060;2022-08-07T17:43:51;1.00;;;1.00;;
6207;SDS011;3137;51.550;7.060;2022-08-07T17:46:39;1.40;;;1.40;;
6207;SDS011;3137;51.550;7.060;2022-08-07T17:49:22;1.30;;;1.30;;
6207;SDS011;3137;51.550;7.060;2022-08-07T17:51:55;1.70;;;1.70;;
6207;SDS011;3137;51.550;7.060;2022-08-07T17:54:32;1.60;;;1.60;;
6207;SDS011;3137;51.550;7.060;2022-08-07T18:00:27;1.40;;;1.40;;
6207;SDS011;3137;51.550;7.060;2022-08-07T18:03:26;1.63;;;1.63;;
6207;SDS011;3137;51.550;7.060;2022-08-07T18:06:19;1.67;;;1.67;;
6207;SDS011;3137;51.550;7.060;2022-08-07T18:09:04;1.40;;;1.40;;
6207;SDS011;3137;51.550;7.060;2022-08-07T18:11:44;1.67;;;1.67;;
6207;SDS011;3137;51.550;7.060;2022-08-07T18:14:42;1.53;;;1.53;;
6207;SDS011;3137;51.550;7.060;2022-08-07T18:20:22;1.50;;;1.50;;
6207;SDS011;3137;51.550;7.060;2022-08-07T18:23:10;1.67;;;1.67;;
6207;SDS011;3137;51.550;7.060;2022-08-07T18:26:03;1.60;;;1.60;;
6207;SDS011;3137;51.550;7.060;2022-08-07T18:34:06;1.67;;;1.67;;
6207;SDS011;3137;51.550;7.060;2022-08-07T18:40:52;1.47;;;1.47;;
6207;SDS011;3137;51.550;7.060;2022-08-07T18:46:59;3.63;;;1.50;;
6207;SDS011;3137;51.550;7.060;2022-08-07T18:49:31;1.73;;;1.73;;
6207;SDS011;3137;51.550;7.060;2022-08-07T19:10:29;2.17;;;2.17;;
6207;SDS011;3137;51.550;7.060;2022-08-07T19:13:19;2.10;;;2.00;;
6207;SDS011;3137;51.550;7.060;2022-08-07T19:15:56;1.97;;;1.97;;
6207;SDS011;3137;51.550;7.060;2022-08-07T19:18:46;1.70;;;1.70;;
6207;SDS011;3137;51.550;7.060;2022-08-07T19:24:12;2.07;;;2.00;;
6207;SDS011;3137;51.550;7.060;2022-08-07T19:27:05;1.93;;;1.93;;
6207;SDS011;3137;51.550;7.060;2022-08-07T19:29:55;2.33;;;2.23;;
6207;SDS011;3137;51.550;7.060;2022-08-07T19:32:43;1.83;;;1.83;;
6207;SDS011;3137;51.550;7.060;2022-08-07T19:35:19;2.33;;;2.33;;
6207;SDS011;3137;51.550;7.060;2022-08-07T19:37:57;1.97;;;1.97;;
6207;SDS011;3137;51.550;7.060;2022-08-07T19:40:25;2.17;;;2.17;;
6207;SDS011;3137;51.550;7.060;2022-08-07T19:42:58;2.30;;;2.30;;
6207;SDS011;3137;51.550;7.060;2022-08-07T19:45:27;2.07;;;2.07;;
6207;SDS011;3137;51.550;7.060;2022-08-07T19:48:19;2.23;;;2.23;;
6207;SDS011;3137;51.550;7.060;2022-08-07T19:50:51;2.57;;;2.57;;
6207;SDS011;3137;51.550;7.060;2022-08-07T19:53:19;2.10;;;2.10;;
6207;SDS011;3137;51.550;7.060;2022-08-07T19:56:07;2.53;;;2.53;;
6207;SDS011;3137;51.550;7.060;2022-08-07T19:58:55;2.80;;;2.53;;
6207;SDS011;3137;51.550;7.060;2022-08-07T20:01:22;4.60;;;2.33;;
6207;SDS011;3137;51.550;7.060;2022-08-07T20:04:10;1.90;;;1.90;;
6207;SDS011;3137;51.550;7.060;2022-08-07T20:06:59;2.37;;;2.27;;
6207;SDS011;3137;51.550;7.060;2022-08-07T20:09:25;2.43;;;2.43;;
6207;SDS011;3137;51.550;7.060;2022-08-07T20:12:14;2.87;;;2.87;;
6207;SDS011;3137;51.550;7.060;2022-08-07T20:14:57;2.70;;;2.60;;
6207;SDS011;3137;51.550;7.060;2022-08-07T20:17:29;2.57;;;2.57;;
6207;SDS011;3137;51.550;7.060;2022-08-07T20:20:03;2.47;;;2.47;;
6207;SDS011;3137;51.550;7.060;2022-08-07T20:22:32;3.63;;;2.73;;